createdAt,value
2019-04-29T00:00:33.934Z,95.51
2019-04-29T00:01:33.864Z,95.51
2019-04-29T00:02:33.877Z,95.51
2019-04-29T00:03:33.866Z,95.41
2019-04-29T00:04:33.837Z,95.62
2019-04-29T00:05:33.842Z,95.62
2019-04-29T00:06:33.811Z,95.41
2019-04-29T00:07:33.798Z,95.41
2019-04-29T00:08:33.810Z,95.51
2019-04-29T00:09:33.810Z,95.41
2019-04-29T00:10:33.764Z,95.31
2019-04-29T00:11:33.786Z,95.41
2019-04-29T00:12:33.765Z,95.72
2019-04-29T00:13:33.728Z,96.03
2019-04-29T00:14:33.722Z,96.03
2019-04-29T00:15:33.708Z,95.93
2019-04-29T00:16:33.721Z,95.62
2019-04-29T00:17:33.705Z,95.72
2019-04-29T00:18:33.689Z,95.83
2019-04-29T00:19:36.118Z,95.72
2019-04-29T00:20:33.673Z,95.72
2019-04-29T00:21:33.664Z,95.72
2019-04-29T00:22:33.630Z,95.31
2019-04-29T00:23:33.659Z,95.51
2019-04-29T00:24:33.628Z,95.72
2019-04-29T00:25:33.597Z,95.83
2019-04-29T00:26:33.602Z,95.62
2019-04-29T00:27:33.610Z,95.62
2019-04-29T00:28:33.594Z,95.83
2019-04-29T00:29:33.556Z,96.14
2019-04-29T00:30:33.543Z,95.72
2019-04-29T00:31:33.531Z,95.83
2019-04-29T00:32:33.519Z,95.77
2019-04-29T00:33:33.534Z,95.62
2019-04-29T00:34:33.494Z,95.83
2019-04-29T00:35:33.495Z,95.56
2019-04-29T00:36:33.483Z,96.08
2019-04-29T00:37:33.462Z,96.19
2019-04-29T00:38:33.476Z,96.08
2019-04-29T00:39:33.438Z,95.77
2019-04-29T00:40:33.466Z,96.08
2019-04-29T00:41:33.446Z,96.02
2019-04-29T00:42:33.403Z,96.39
2019-04-29T00:43:33.398Z,95.77
2019-04-29T00:44:33.385Z,95.98
2019-04-29T00:45:33.399Z,96.44
2019-04-29T00:46:33.364Z,96.39
2019-04-29T00:47:33.348Z,96.23
2019-04-29T00:48:33.338Z,95.98
2019-04-29T00:49:33.350Z,96.12
2019-04-29T00:50:33.315Z,97.06
2019-04-29T00:51:33.304Z,97.02
2019-04-29T00:52:33.326Z,96.54
2019-04-29T00:53:33.299Z,96.54
2019-04-29T00:54:33.295Z,96.75
2019-04-29T00:55:33.291Z,96.95
2019-04-29T00:56:33.246Z,96.50
2019-04-29T00:57:33.262Z,96.64
2019-04-29T00:58:33.228Z,96.70
2019-04-29T00:59:33.220Z,96.70
2019-04-29T01:00:33.248Z,96.70
2019-04-29T01:01:33.220Z,96.91
2019-04-29T01:02:33.189Z,96.60
2019-04-29T01:03:33.178Z,96.60
2019-04-29T01:04:33.160Z,96.60
2019-04-29T01:05:33.186Z,96.60
2019-04-29T01:06:33.153Z,96.60
2019-04-29T01:07:33.124Z,96.44
2019-04-29T01:08:33.115Z,96.70
2019-04-29T01:09:33.118Z,96.70
2019-04-29T01:10:33.131Z,96.75
2019-04-29T01:11:33.082Z,96.64
2019-04-29T01:12:33.090Z,96.75
2019-04-29T01:13:33.084Z,96.75
2019-04-29T01:14:33.043Z,96.44
2019-04-29T01:15:33.037Z,96.75
2019-04-29T01:16:33.037Z,96.95
2019-04-29T01:17:33.024Z,96.64
2019-04-29T01:18:33.026Z,96.75
2019-04-29T01:19:33.009Z,96.85
2019-04-29T01:20:32.981Z,97.16
2019-04-29T01:21:32.966Z,96.75
2019-04-29T01:22:32.987Z,96.75
2019-04-29T01:23:32.970Z,97.06
2019-04-29T01:24:32.940Z,96.95
2019-04-29T01:25:32.925Z,96.75
2019-04-29T01:26:32.913Z,96.79
2019-04-29T01:27:32.924Z,96.17
2019-04-29T01:28:32.890Z,96.95
2019-04-29T01:29:32.881Z,96.54
2019-04-29T01:30:32.897Z,96.12
2019-04-29T01:31:32.881Z,97.00
2019-04-29T01:32:32.846Z,96.37
2019-04-29T01:33:32.858Z,97.20
2019-04-29T01:34:32.822Z,96.06
2019-04-29T01:35:32.814Z,96.37
2019-04-29T01:36:32.802Z,95.96
2019-04-29T01:37:32.816Z,96.17
2019-04-29T01:38:32.795Z,96.17
2019-04-29T01:39:32.768Z,96.17
2019-04-29T01:40:32.756Z,96.58
2019-04-29T01:41:32.744Z,96.79
2019-04-29T01:42:32.756Z,97.00
2019-04-29T01:43:32.720Z,97.10
2019-04-29T01:44:32.707Z,97.20
2019-04-29T01:45:32.704Z,97.00
2019-04-29T01:46:32.693Z,96.79
2019-04-29T01:47:32.708Z,96.48
2019-04-29T01:48:32.666Z,96.58
2019-04-29T01:49:32.681Z,96.79
2019-04-29T01:50:32.695Z,96.58
2019-04-29T01:51:32.637Z,96.69
2019-04-29T01:52:32.653Z,96.89
2019-04-29T01:53:32.607Z,96.48
2019-04-29T01:54:32.600Z,97.00
2019-04-29T01:55:32.589Z,97.00
2019-04-29T01:56:32.623Z,96.89
2019-04-29T01:57:32.606Z,96.69
2019-04-29T01:58:32.553Z,97.31
2019-04-29T01:59:32.572Z,97.31
2019-04-29T02:00:32.528Z,97.31
2019-04-29T02:01:32.541Z,97.31
2019-04-29T02:02:32.512Z,97.10
2019-04-29T02:03:32.507Z,97.00
2019-04-29T02:04:32.516Z,97.10
2019-04-29T02:05:32.474Z,97.31
2019-04-29T02:06:32.470Z,97.10
2019-04-29T02:07:32.494Z,97.04
2019-04-29T02:08:32.458Z,97.31
2019-04-29T02:09:32.426Z,97.20
2019-04-29T02:10:32.419Z,97.14
2019-04-29T02:11:32.419Z,96.79
2019-04-29T02:12:32.447Z,97.10
2019-04-29T02:13:32.411Z,97.00
2019-04-29T02:14:32.399Z,96.89
2019-04-29T02:15:32.385Z,96.69
2019-04-29T02:16:32.357Z,96.89
2019-04-29T02:17:32.355Z,96.89
2019-04-29T02:18:32.342Z,96.89
2019-04-29T02:19:32.343Z,96.69
2019-04-29T02:20:32.332Z,96.89
2019-04-29T02:21:32.300Z,97.10
2019-04-29T02:22:32.295Z,97.00
2019-04-29T02:23:32.270Z,96.69
2019-04-29T02:24:32.288Z,97.00
2019-04-29T02:25:32.252Z,97.06
2019-04-29T02:26:32.249Z,97.00
2019-04-29T02:27:32.227Z,96.85
2019-04-29T02:28:32.259Z,97.06
2019-04-29T02:29:32.217Z,96.54
2019-04-29T02:30:32.198Z,97.31
2019-04-29T02:31:32.196Z,97.20
2019-04-29T02:32:32.173Z,97.10
2019-04-29T02:33:32.249Z,96.58
2019-04-29T02:34:32.169Z,97.58
2019-04-29T02:35:32.137Z,97.31
2019-04-29T02:36:32.128Z,97.41
2019-04-29T02:37:32.125Z,97.31
2019-04-29T02:38:32.148Z,97.31
2019-04-29T02:39:32.115Z,97.10
2019-04-29T02:40:32.083Z,96.58
2019-04-29T02:41:32.099Z,97.20
2019-04-29T02:42:32.058Z,97.14
2019-04-29T02:43:32.066Z,97.00
2019-04-29T02:44:32.085Z,96.89
2019-04-29T02:45:32.030Z,97.10
2019-04-29T02:46:32.040Z,97.10
2019-04-29T02:47:32.001Z,97.20
2019-04-29T02:48:34.661Z,97.00
2019-04-29T02:49:31.981Z,96.89
2019-04-29T02:50:31.972Z,97.00
2019-04-29T02:51:31.982Z,97.00
2019-04-29T02:52:31.981Z,97.00
2019-04-29T02:53:31.934Z,96.89
2019-04-29T02:54:31.962Z,97.00
2019-04-29T02:55:31.912Z,97.10
2019-04-29T02:56:31.904Z,96.89
2019-04-29T02:57:31.891Z,96.89
2019-04-29T02:58:31.895Z,97.00
2019-04-29T02:59:31.885Z,97.25
2019-04-29T03:00:31.856Z,97.25
2019-04-29T03:01:31.861Z,97.20
2019-04-29T03:02:31.867Z,97.31
2019-04-29T03:03:31.823Z,97.20
2019-04-29T03:04:31.836Z,97.14
2019-04-29T03:05:31.810Z,97.14
2019-04-29T03:06:31.807Z,97.14
2019-04-29T03:07:31.813Z,97.04
2019-04-29T03:08:31.800Z,97.00
2019-04-29T03:09:31.756Z,97.04
2019-04-29T03:10:31.759Z,97.00
2019-04-29T03:11:31.736Z,97.04
2019-04-29T03:12:31.733Z,97.25
2019-04-29T03:13:31.738Z,97.04
2019-04-29T03:14:31.712Z,97.04
2019-04-29T03:15:31.701Z,96.94
2019-04-29T03:16:31.677Z,96.94
2019-04-29T03:17:31.666Z,96.83
2019-04-29T03:18:31.683Z,97.04
2019-04-29T03:19:31.646Z,96.98
2019-04-29T03:20:31.679Z,97.14
2019-04-29T03:21:31.622Z,96.94
2019-04-29T03:22:31.614Z,96.98
2019-04-29T03:23:31.620Z,97.09
2019-04-29T03:24:31.602Z,97.19
2019-04-29T03:25:31.603Z,96.78
2019-04-29T03:26:31.597Z,96.98
2019-04-29T03:27:31.565Z,96.98
2019-04-29T03:28:31.553Z,96.92
2019-04-29T03:29:31.534Z,96.78
2019-04-29T03:30:31.587Z,97.13
2019-04-29T03:31:38.427Z,97.44
2019-04-29T03:32:32.508Z,96.88
2019-04-29T03:33:31.505Z,97.03
2019-04-29T03:34:31.526Z,97.03
2019-04-29T03:35:31.464Z,96.98
2019-04-29T03:36:31.472Z,97.24
2019-04-29T03:37:31.488Z,97.24
2019-04-29T03:38:31.430Z,97.24
2019-04-29T03:39:31.430Z,97.24
2019-04-29T03:40:31.409Z,96.72
2019-04-29T03:41:31.397Z,96.72
2019-04-29T03:42:31.421Z,96.72
2019-04-29T03:43:31.375Z,96.82
2019-04-29T03:44:31.412Z,97.75
2019-04-29T03:45:31.360Z,97.65
2019-04-29T03:46:31.341Z,97.65
2019-04-29T03:47:31.357Z,97.44
2019-04-29T03:48:31.322Z,97.34
2019-04-29T03:49:31.323Z,97.44
2019-04-29T03:50:31.301Z,97.65
2019-04-29T03:51:31.287Z,97.65
2019-04-29T03:52:31.301Z,97.24
2019-04-29T03:53:31.270Z,97.34
2019-04-29T03:54:31.265Z,97.44
2019-04-29T03:55:40.157Z,97.65
2019-04-29T03:56:32.253Z,97.75
2019-04-29T03:57:31.255Z,97.55
2019-04-29T03:58:31.235Z,97.55
2019-04-29T03:59:31.199Z,97.34
2019-04-29T04:00:31.194Z,97.81
2019-04-29T04:01:31.206Z,97.55
2019-04-29T04:02:31.163Z,97.55
2019-04-29T04:03:31.154Z,97.65
2019-04-29T04:04:31.145Z,97.13
2019-04-29T04:05:31.169Z,97.34
2019-04-29T04:06:31.133Z,97.75
2019-04-29T04:07:31.112Z,97.34
2019-04-29T04:08:31.134Z,97.65
2019-04-29T04:09:31.091Z,97.61
2019-04-29T04:10:31.086Z,97.65
2019-04-29T04:11:31.074Z,97.65
2019-04-29T04:12:31.057Z,97.55
2019-04-29T04:13:31.189Z,97.55
2019-04-29T04:14:31.038Z,97.65
2019-04-29T04:15:31.021Z,97.65
2019-04-29T04:16:31.016Z,97.75
2019-04-29T04:17:31.018Z,97.75
2019-04-29T04:18:31.015Z,97.55
2019-04-29T04:19:30.975Z,97.55
2019-04-29T04:20:30.963Z,97.65
2019-04-29T04:21:30.955Z,97.65
2019-04-29T04:22:30.976Z,97.55
2019-04-29T04:23:30.932Z,97.55
2019-04-29T04:24:30.928Z,97.75
2019-04-29T04:25:31.044Z,97.55
2019-04-29T04:26:30.925Z,97.44
2019-04-29T04:27:30.889Z,97.55
2019-04-29T04:28:30.876Z,97.44
2019-04-29T04:29:30.872Z,97.44
2019-04-29T04:30:30.855Z,97.55
2019-04-29T04:31:30.874Z,97.34
2019-04-29T04:32:30.853Z,97.55
2019-04-29T04:33:30.823Z,97.34
2019-04-29T04:34:30.834Z,97.44
2019-04-29T04:35:30.799Z,97.44
2019-04-29T04:36:30.841Z,97.50
2019-04-29T04:37:30.787Z,97.40
2019-04-29T04:38:30.787Z,97.45
2019-04-29T04:39:30.754Z,97.45
2019-04-29T04:40:30.745Z,97.61
2019-04-29T04:41:30.756Z,97.56
2019-04-29T04:42:30.722Z,97.61
2019-04-29T04:43:30.744Z,97.56
2019-04-29T04:44:30.719Z,97.25
2019-04-29T04:45:30.686Z,97.35
2019-04-29T04:46:30.677Z,97.56
2019-04-29T04:47:30.687Z,96.62
2019-04-29T04:48:30.651Z,96.62
2019-04-29T04:49:30.654Z,97.20
2019-04-29T04:50:30.638Z,97.20
2019-04-29T04:51:30.621Z,96.95
2019-04-29T04:52:30.629Z,96.58
2019-04-29T04:53:30.596Z,97.06
2019-04-29T04:54:31.537Z,97.27
2019-04-29T04:55:30.571Z,97.37
2019-04-29T04:56:30.561Z,97.06
2019-04-29T04:57:30.567Z,96.95
2019-04-29T04:58:30.566Z,96.85
2019-04-29T04:59:30.529Z,97.02
2019-04-29T05:00:30.517Z,96.60
2019-04-29T05:01:30.514Z,96.91
2019-04-29T05:02:30.494Z,97.02
2019-04-29T05:03:30.505Z,97.02
2019-04-29T05:04:30.481Z,96.91
2019-04-29T05:05:30.460Z,96.76
2019-04-29T05:06:30.473Z,96.60
2019-04-29T05:07:30.437Z,96.76
2019-04-29T05:08:30.449Z,96.86
2019-04-29T05:09:30.418Z,97.17
2019-04-29T05:10:30.418Z,96.14
2019-04-29T05:11:30.392Z,95.41
2019-04-29T05:12:30.406Z,95.31
2019-04-29T05:13:30.397Z,95.31
2019-04-29T05:14:30.363Z,95.93
2019-04-29T05:15:30.350Z,95.62
2019-04-29T05:16:30.339Z,94.85
2019-04-29T05:17:30.333Z,94.64
2019-04-29T05:18:30.354Z,94.74
2019-04-29T05:19:30.334Z,94.64
2019-04-29T05:20:30.293Z,94.54
2019-04-29T05:21:30.281Z,93.98
2019-04-29T05:22:30.274Z,94.49
2019-04-29T05:23:30.288Z,93.87
2019-04-29T05:24:30.271Z,93.87
2019-04-29T05:25:30.237Z,93.77
2019-04-29T05:26:30.230Z,93.25
2019-04-29T05:27:30.218Z,93.87
2019-04-29T05:28:30.228Z,93.87
2019-04-29T05:29:30.197Z,93.93
2019-04-29T05:30:30.192Z,94.08
2019-04-29T05:31:30.197Z,94.29
2019-04-29T05:32:30.168Z,93.73
2019-04-29T05:33:30.146Z,93.73
2019-04-29T05:34:30.135Z,93.93
2019-04-29T05:35:30.160Z,93.62
2019-04-29T05:36:30.154Z,93.62
2019-04-29T05:37:30.102Z,93.62
2019-04-29T05:38:30.091Z,93.31
2019-04-29T05:39:30.080Z,93.37
2019-04-29T05:40:30.093Z,93.16
2019-04-29T05:41:34.646Z,93.27
2019-04-29T05:42:31.056Z,93.85
2019-04-29T05:43:32.033Z,93.12
2019-04-29T05:44:30.026Z,93.23
2019-04-29T05:45:30.014Z,92.81
2019-04-29T05:46:30.033Z,93.29
2019-04-29T05:47:29.989Z,92.67
2019-04-29T05:48:32.070Z,92.25
2019-04-29T05:49:29.970Z,92.21
2019-04-29T05:50:29.955Z,92.25
2019-04-29T05:51:30.008Z,91.69
2019-04-29T05:52:30.335Z,91.24
2019-04-29T05:53:29.923Z,91.86
2019-04-29T05:54:31.626Z,90.78
2019-04-29T05:55:29.900Z,90.99
2019-04-29T05:56:29.904Z,91.26
2019-04-29T05:57:29.879Z,90.43
2019-04-29T05:58:32.980Z,90.12
2019-04-29T05:59:30.878Z,90.74
2019-04-29T06:00:29.844Z,90.53
2019-04-29T06:01:29.863Z,90.74
2019-04-29T06:02:33.593Z,90.59
2019-04-29T06:03:33.637Z,90.33
2019-04-29T06:04:30.805Z,89.46
2019-04-29T06:05:29.793Z,89.25
2019-04-29T06:06:29.789Z,88.43
2019-04-29T06:07:29.791Z,88.53
2019-04-29T06:08:29.790Z,88.02
2019-04-29T06:09:29.742Z,88.18
2019-04-29T06:10:29.736Z,87.87
2019-04-29T06:11:29.720Z,87.73
2019-04-29T06:12:29.731Z,86.90
2019-04-29T06:13:29.698Z,86.90
2019-04-29T06:14:29.701Z,85.57
2019-04-29T06:15:29.681Z,85.25
2019-04-29T06:16:29.671Z,85.19
2019-04-29T06:17:29.654Z,85.67
2019-04-29T06:18:29.641Z,85.73
2019-04-29T06:19:29.662Z,85.22
2019-04-29T06:20:29.618Z,85.89
2019-04-29T06:21:29.623Z,84.97
2019-04-29T06:22:29.601Z,84.05
2019-04-29T06:23:29.597Z,84.77
2019-04-29T06:24:29.597Z,85.07
2019-04-29T06:25:29.568Z,84.62
2019-04-29T06:26:29.557Z,84.72
2019-04-29T06:27:29.543Z,84.62
2019-04-29T06:28:29.534Z,85.03
2019-04-29T06:29:29.548Z,84.48
2019-04-29T06:30:29.515Z,83.76
2019-04-29T06:31:29.494Z,82.77
2019-04-29T06:32:29.508Z,82.67
2019-04-29T06:33:30.973Z,81.84
2019-04-29T06:34:29.476Z,82.15
2019-04-29T06:35:29.450Z,82.15
2019-04-29T06:36:29.439Z,83.01
2019-04-29T06:37:29.456Z,83.39
2019-04-29T06:38:29.477Z,83.18
2019-04-29T06:39:29.407Z,83.25
2019-04-29T06:40:30.635Z,82.01
2019-04-29T06:41:30.381Z,82.11
2019-04-29T06:42:29.575Z,81.97
2019-04-29T06:43:30.710Z,81.39
2019-04-29T06:44:29.554Z,82.01
2019-04-29T06:45:29.336Z,81.91
2019-04-29T06:46:29.909Z,83.35
2019-04-29T06:47:29.319Z,83.00
2019-04-29T06:48:29.312Z,83.27
2019-04-29T06:49:29.314Z,82.65
2019-04-29T06:50:29.281Z,82.96
2019-04-29T06:51:29.269Z,81.93
2019-04-29T06:52:29.259Z,81.01
2019-04-29T06:53:29.247Z,81.01
2019-04-29T06:54:29.270Z,81.11
2019-04-29T06:55:29.250Z,81.93
2019-04-29T06:56:29.211Z,81.62
2019-04-29T06:57:29.228Z,80.77
2019-04-29T06:58:32.500Z,80.15
2019-04-29T06:59:30.176Z,81.24
2019-04-29T07:00:29.195Z,81.34
2019-04-29T07:01:33.008Z,81.30
2019-04-29T07:02:30.168Z,81.71
2019-04-29T07:03:29.134Z,81.62
2019-04-29T07:04:30.654Z,80.07
2019-04-29T07:05:30.138Z,79.42
2019-04-29T07:06:29.124Z,80.04
2019-04-29T07:07:29.088Z,79.93
2019-04-29T07:08:29.112Z,79.42
2019-04-29T07:09:29.068Z,77.98
2019-04-29T07:10:29.054Z,78.29
2019-04-29T07:11:31.880Z,79.32
2019-04-29T07:12:30.030Z,78.94
2019-04-29T07:13:29.020Z,78.09
2019-04-29T07:14:33.302Z,78.50
2019-04-29T07:15:30.001Z,78.29
2019-04-29T07:16:31.905Z,79.59
2019-04-29T07:17:28.976Z,78.46
2019-04-29T07:18:28.986Z,77.54
2019-04-29T07:19:28.960Z,78.16
2019-04-29T07:20:32.522Z,78.46
2019-04-29T07:21:29.965Z,79.49
2019-04-29T07:22:31.130Z,78.36
2019-04-29T07:23:28.911Z,78.36
2019-04-29T07:24:28.901Z,78.56
2019-04-29T07:25:30.299Z,79.18
2019-04-29T07:26:28.877Z,79.08
2019-04-29T07:27:28.892Z,78.36
2019-04-29T07:28:28.901Z,78.74
2019-04-29T07:29:32.018Z,78.28
2019-04-29T07:30:29.476Z,78.08
2019-04-29T07:31:33.371Z,77.47
2019-04-29T07:32:32.314Z,78.45
2019-04-29T07:33:28.811Z,76.24
2019-04-29T07:34:33.224Z,76.72
2019-04-29T07:35:29.776Z,76.40
2019-04-29T07:36:28.764Z,78.05
2019-04-29T07:37:29.731Z,77.84
2019-04-29T07:38:40.759Z,77.84
2019-04-29T07:39:33.355Z,76.20
2019-04-29T07:40:28.740Z,75.99
2019-04-29T07:41:28.708Z,76.20
2019-04-29T07:42:32.248Z,76.72
2019-04-29T07:43:28.680Z,76.51
2019-04-29T07:44:37.107Z,76.81
2019-04-29T07:45:43.375Z,78.05
2019-04-29T07:46:29.652Z,76.81
2019-04-29T07:47:29.475Z,76.20
2019-04-29T07:48:28.656Z,77.47
2019-04-29T07:49:28.616Z,78.08
2019-04-29T07:50:28.653Z,77.16
2019-04-29T07:51:28.601Z,77.98
2019-04-29T07:52:28.584Z,78.35
2019-04-29T07:53:35.862Z,77.53
2019-04-29T07:54:29.562Z,77.53
2019-04-29T07:55:30.725Z,77.23
2019-04-29T07:56:28.557Z,77.23
2019-04-29T07:57:28.530Z,78.15
2019-04-29T07:58:28.539Z,78.15
2019-04-29T07:59:28.533Z,77.23
2019-04-29T08:00:28.490Z,77.53
2019-04-29T08:01:28.484Z,77.19
2019-04-29T08:02:28.465Z,76.88
2019-04-29T08:03:28.487Z,77.05
2019-04-29T08:04:28.442Z,77.36
2019-04-29T08:05:28.462Z,76.64
2019-04-29T08:06:28.425Z,76.64
2019-04-29T08:07:28.413Z,75.59
2019-04-29T08:08:28.512Z,76.61
2019-04-29T08:09:28.388Z,76.06
2019-04-29T08:10:29.785Z,75.65
2019-04-29T08:11:28.369Z,74.97
2019-04-29T08:12:28.356Z,75.93
2019-04-29T08:13:28.370Z,76.03
2019-04-29T08:14:28.331Z,75.82
2019-04-29T08:15:31.578Z,76.20
2019-04-29T08:16:28.309Z,76.71
2019-04-29T08:17:28.303Z,77.08
2019-04-29T08:18:28.323Z,78.00
2019-04-29T08:19:29.504Z,77.08
2019-04-29T08:20:28.264Z,75.82
2019-04-29T08:21:28.258Z,75.85
2019-04-29T08:22:29.352Z,75.71
2019-04-29T08:23:28.258Z,75.92
2019-04-29T08:24:28.219Z,75.00
2019-04-29T08:25:28.232Z,76.03
2019-04-29T08:26:28.241Z,75.71
2019-04-29T08:27:39.295Z,75.82
2019-04-29T08:28:29.174Z,75.96
2019-04-29T08:29:30.735Z,76.16
2019-04-29T08:30:29.157Z,75.75
2019-04-29T08:31:28.163Z,75.99
2019-04-29T08:32:31.632Z,77.22
2019-04-29T08:33:29.115Z,78.11
2019-04-29T08:34:28.115Z,77.08
2019-04-29T08:35:28.143Z,75.71
2019-04-29T08:36:28.085Z,76.37
2019-04-29T08:37:28.075Z,77.97
2019-04-29T08:38:28.072Z,77.04
2019-04-29T08:39:29.355Z,75.82
2019-04-29T08:40:28.062Z,75.62
2019-04-29T08:41:29.861Z,76.74
2019-04-29T08:42:28.046Z,75.82
2019-04-29T08:43:28.007Z,76.64
2019-04-29T08:44:27.994Z,76.60
2019-04-29T08:45:28.006Z,74.76
2019-04-29T08:46:27.970Z,74.11
2019-04-29T08:47:31.649Z,75.54
2019-04-29T08:48:27.957Z,74.18
2019-04-29T08:49:27.937Z,73.77
2019-04-29T08:50:27.931Z,71.15
2019-04-29T08:51:28.008Z,72.48
2019-04-29T08:52:27.902Z,72.75
2019-04-29T08:53:27.893Z,72.34
2019-04-29T08:54:27.908Z,72.04
2019-04-29T08:55:30.952Z,72.14
2019-04-29T08:56:28.887Z,71.43
2019-04-29T08:57:31.755Z,71.94
2019-04-29T08:58:28.860Z,71.43
2019-04-29T08:59:27.824Z,70.89
2019-04-29T09:00:27.839Z,71.22
2019-04-29T09:01:29.297Z,71.33
2019-04-29T09:02:35.187Z,70.81
2019-04-29T09:03:39.641Z,70.75
2019-04-29T09:04:33.381Z,71.22
2019-04-29T09:05:27.761Z,70.75
2019-04-29T09:06:32.667Z,71.97
2019-04-29T09:07:28.732Z,72.69
2019-04-29T09:08:28.867Z,72.48
2019-04-29T09:09:29.540Z,71.15
2019-04-29T09:10:27.701Z,70.85
2019-04-29T09:11:27.729Z,71.87
2019-04-29T09:12:29.359Z,72.58
2019-04-29T09:13:27.689Z,71.63
2019-04-29T09:14:27.678Z,71.12
2019-04-29T09:15:27.647Z,71.22
2019-04-29T09:16:27.635Z,71.53
2019-04-29T09:17:27.618Z,70.10
2019-04-29T09:18:27.609Z,71.73
2019-04-29T09:19:27.622Z,70.92
2019-04-29T09:20:27.600Z,71.12
2019-04-29T09:21:27.573Z,71.09
2019-04-29T09:22:27.578Z,70.48
2019-04-29T09:23:27.550Z,69.96
2019-04-29T09:24:27.561Z,69.53
2019-04-29T09:25:28.035Z,69.76
2019-04-29T09:26:27.516Z,69.46
2019-04-29T09:27:27.504Z,68.74
2019-04-29T09:28:29.694Z,69.15
2019-04-29T09:29:27.487Z,68.33
2019-04-29T09:30:27.483Z,68.40
2019-04-29T09:31:27.459Z,68.30
2019-04-29T09:32:27.456Z,69.29
2019-04-29T09:33:27.478Z,69.25
2019-04-29T09:34:27.426Z,69.46
2019-04-29T09:35:28.888Z,70.10
2019-04-29T09:36:28.958Z,69.52
2019-04-29T09:37:27.391Z,70.23
2019-04-29T09:38:27.380Z,69.52
2019-04-29T09:39:27.374Z,70.03
2019-04-29T09:40:27.357Z,70.03
2019-04-29T09:41:30.495Z,70.54
2019-04-29T09:42:30.900Z,70.23
2019-04-29T09:43:27.322Z,70.20
2019-04-29T09:44:27.349Z,69.52
2019-04-29T09:45:27.313Z,69.52
2019-04-29T09:46:30.032Z,69.82
2019-04-29T09:47:28.278Z,68.80
2019-04-29T09:48:27.276Z,70.20
2019-04-29T09:49:27.279Z,69.01
2019-04-29T09:50:28.554Z,69.62
2019-04-29T09:51:29.361Z,69.82
2019-04-29T09:52:27.237Z,70.23
2019-04-29T09:53:27.209Z,69.52
2019-04-29T09:54:27.206Z,70.64
2019-04-29T09:55:27.186Z,70.54
2019-04-29T09:56:27.200Z,69.49
2019-04-29T09:57:27.165Z,70.14
2019-04-29T09:58:27.161Z,70.14
2019-04-29T09:59:27.146Z,70.47
2019-04-29T10:00:27.132Z,70.92
2019-04-29T10:01:27.152Z,71.83
2019-04-29T10:02:31.335Z,72.65
2019-04-29T10:03:28.097Z,72.14
2019-04-29T10:04:27.123Z,72.07
2019-04-29T10:05:27.080Z,72.79
2019-04-29T10:06:27.475Z,72.48
2019-04-29T10:07:27.082Z,73.13
2019-04-29T10:08:27.049Z,73.74
2019-04-29T10:09:27.054Z,74.02
2019-04-29T10:10:27.061Z,74.97
2019-04-29T10:11:27.009Z,75.17
2019-04-29T10:12:26.994Z,75.89
2019-04-29T10:13:26.986Z,76.50
2019-04-29T10:14:26.975Z,76.54
2019-04-29T10:15:26.984Z,77.05
2019-04-29T10:16:26.950Z,79.41
2019-04-29T10:17:26.946Z,78.69
2019-04-29T10:18:29.736Z,79.82
2019-04-29T10:19:26.950Z,79.54
2019-04-29T10:20:26.909Z,79.96
2019-04-29T10:21:26.893Z,81.08
2019-04-29T10:22:26.889Z,80.46
2019-04-29T10:23:26.873Z,80.30
2019-04-29T10:24:26.895Z,81.22
2019-04-29T10:25:26.851Z,82.45
2019-04-29T10:26:26.839Z,80.51
2019-04-29T10:27:26.833Z,80.85
2019-04-29T10:28:26.813Z,80.85
2019-04-29T10:29:26.841Z,80.95
2019-04-29T10:30:30.884Z,82.35
2019-04-29T10:31:26.782Z,83.00
2019-04-29T10:32:26.769Z,81.15
2019-04-29T10:33:26.803Z,80.54
2019-04-29T10:34:31.108Z,80.68
2019-04-29T10:35:26.765Z,81.50
2019-04-29T10:36:26.729Z,82.63
2019-04-29T10:37:31.491Z,81.60
2019-04-29T10:38:27.718Z,83.45
2019-04-29T10:39:26.691Z,83.25
2019-04-29T10:40:26.682Z,83.86
2019-04-29T10:41:26.701Z,84.20
2019-04-29T10:42:26.657Z,83.90
2019-04-29T10:43:26.676Z,83.28
2019-04-29T10:44:26.642Z,84.31
2019-04-29T10:45:26.644Z,83.69
2019-04-29T10:46:26.637Z,84.55
2019-04-29T10:47:26.601Z,84.55
2019-04-29T10:48:26.590Z,84.55
2019-04-29T10:49:26.601Z,84.55
2019-04-29T10:50:26.573Z,84.55
2019-04-29T10:51:27.506Z,84.14
2019-04-29T10:52:26.551Z,84.96
2019-04-29T10:53:28.876Z,85.58
2019-04-29T10:54:26.552Z,84.61
2019-04-29T10:55:30.124Z,84.76
2019-04-29T10:56:27.515Z,85.44
2019-04-29T10:57:29.148Z,85.64
2019-04-29T10:58:30.259Z,85.58
2019-04-29T10:59:35.696Z,84.86
2019-04-29T11:00:27.478Z,86.19
2019-04-29T11:01:29.270Z,86.19
2019-04-29T11:02:26.438Z,86.40
2019-04-29T11:03:26.424Z,86.09
2019-04-29T11:04:26.436Z,86.54
2019-04-29T11:05:26.432Z,86.30
2019-04-29T11:06:26.389Z,85.06
2019-04-29T11:07:27.683Z,85.38
2019-04-29T11:08:26.366Z,85.58
2019-04-29T11:09:26.368Z,86.24
2019-04-29T11:10:26.364Z,87.84
2019-04-29T11:11:27.260Z,87.32
2019-04-29T11:12:26.354Z,86.24
2019-04-29T11:13:26.308Z,86.40
2019-04-29T11:14:26.305Z,86.91
2019-04-29T11:15:28.850Z,86.81
2019-04-29T11:16:37.106Z,87.32
2019-04-29T11:17:27.288Z,87.02
2019-04-29T11:18:26.280Z,87.70
2019-04-29T11:19:26.268Z,87.90
2019-04-29T11:20:26.232Z,87.43
2019-04-29T11:21:29.475Z,88.35
2019-04-29T11:22:26.215Z,88.72
2019-04-29T11:23:26.195Z,88.92
2019-04-29T11:24:26.192Z,88.92
2019-04-29T11:25:26.199Z,88.72
2019-04-29T11:26:26.190Z,88.92
2019-04-29T11:27:26.149Z,88.51
2019-04-29T11:28:26.148Z,88.41
2019-04-29T11:29:27.187Z,88.72
2019-04-29T11:30:26.145Z,88.82
2019-04-29T11:31:26.104Z,88.72
2019-04-29T11:32:29.233Z,89.33
2019-04-29T11:33:26.083Z,89.39
2019-04-29T11:34:26.071Z,89.50
2019-04-29T11:35:28.385Z,89.39
2019-04-29T11:36:26.079Z,88.82
2019-04-29T11:37:26.063Z,89.75
2019-04-29T11:38:28.531Z,89.39
2019-04-29T11:39:27.016Z,90.01
2019-04-29T11:40:42.623Z,90.42
2019-04-29T11:41:26.991Z,90.11
2019-04-29T11:42:26.013Z,89.50
2019-04-29T11:43:25.973Z,89.70
2019-04-29T11:44:26.634Z,89.90
2019-04-29T11:45:25.955Z,90.07
2019-04-29T11:46:25.945Z,89.60
2019-04-29T11:47:26.330Z,90.01
2019-04-29T11:48:25.916Z,89.19
2019-04-29T11:49:25.912Z,89.81
2019-04-29T11:50:27.055Z,90.42
2019-04-29T11:51:25.880Z,90.11
2019-04-29T11:52:28.106Z,90.22
2019-04-29T11:53:25.882Z,90.42
2019-04-29T11:54:25.852Z,90.22
2019-04-29T11:55:25.839Z,89.90
2019-04-29T11:56:25.824Z,90.01
2019-04-29T11:57:25.817Z,90.42
2019-04-29T11:58:25.819Z,90.01
2019-04-29T11:59:25.899Z,90.52
2019-04-29T12:00:25.779Z,90.62
2019-04-29T12:01:37.827Z,91.14
2019-04-29T12:02:44.534Z,90.73
2019-04-29T12:03:26.742Z,90.01
2019-04-29T12:04:28.682Z,90.11
2019-04-29T12:05:26.730Z,90.73
2019-04-29T12:06:25.726Z,91.14
2019-04-29T12:07:31.754Z,90.42
2019-04-29T12:08:26.709Z,90.32
2019-04-29T12:09:30.597Z,89.70
2019-04-29T12:10:26.662Z,89.23
2019-04-29T12:11:28.724Z,89.84
2019-04-29T12:12:26.669Z,89.43
2019-04-29T12:13:28.332Z,89.64
2019-04-29T12:14:25.619Z,88.51
2019-04-29T12:15:25.616Z,89.75
2019-04-29T12:16:26.347Z,89.95
2019-04-29T12:17:25.607Z,89.54
2019-04-29T12:18:25.574Z,90.56
2019-04-29T12:19:25.565Z,89.54
2019-04-29T12:20:25.551Z,89.75
2019-04-29T12:21:25.845Z,90.16
2019-04-29T12:22:30.483Z,90.05
2019-04-29T12:23:26.519Z,89.89
2019-04-29T12:24:25.510Z,90.61
2019-04-29T12:25:27.632Z,90.30
2019-04-29T12:26:25.492Z,90.56
2019-04-29T12:27:25.494Z,91.33
2019-04-29T12:28:27.022Z,91.02
2019-04-29T12:29:25.451Z,91.63
2019-04-29T12:30:25.438Z,91.84
2019-04-29T12:31:25.437Z,91.53
2019-04-29T12:32:26.678Z,91.53
2019-04-29T12:33:25.405Z,91.33
2019-04-29T12:34:26.884Z,91.63
2019-04-29T12:35:25.407Z,91.63
2019-04-29T12:36:25.376Z,92.25
2019-04-29T12:37:25.668Z,92.04
2019-04-29T12:38:39.032Z,92.25
2019-04-29T12:39:42.699Z,92.76
2019-04-29T12:40:26.325Z,92.46
2019-04-29T12:41:29.658Z,91.84
2019-04-29T12:42:25.314Z,91.84
2019-04-29T12:43:25.294Z,91.63
2019-04-29T12:44:34.950Z,91.67
2019-04-29T12:45:26.276Z,91.88
2019-04-29T12:46:25.259Z,92.35
2019-04-29T12:47:27.223Z,92.46
2019-04-29T12:48:25.406Z,92.35
2019-04-29T12:49:25.250Z,92.35
2019-04-29T12:50:25.216Z,92.86
2019-04-29T12:51:25.238Z,92.55
2019-04-29T12:52:25.193Z,92.46